Time;durP1;ratioP1;P1;durP2;ratioP2;P2;SDS_P1;SDS_P2;PMS_P1;PMS_P2;Temp;Humidity;BMP_temperature;BMP_pressure;BME280_temperature;BME280_humidity;BME280_pressure;Samples;Min_cycle;Max_cycle;Signal;HPM_P1;HPM_P2
2023/12/28 00:00:51;;;;;;;10.60;3.38;;;;;;;12.15;81.02;100981.34;5013935;28;20152;-67
2023/12/28 00:03:18;;;;;;;13.02;5.97;;;;;;;12.41;80.29;100978.72;5024016;28;20061;-68
2023/12/28 00:05:46;;;;;;;12.85;5.07;;;;;;;12.25;80.52;100977.50;5028528;28;20052;-62
2023/12/28 00:08:13;;;;;;;13.02;7.13;;;;;;;12.23;80.78;100979.78;5014004;28;20055;-62
2023/12/28 00:10:41;;;;;;;13.50;6.55;;;;;;;12.29;80.59;100978.50;5013817;28;20049;-62
2023/12/28 00:13:08;;;;;;;20.75;8.98;;;;;;;12.16;81.11;100973.88;4998478;28;20053;-68
2023/12/28 00:15:36;;;;;;;10.85;4.20;;;;;;;12.34;80.86;100981.13;4998325;28;20054;-67
2023/12/28 00:18:03;;;;;;;12.95;4.10;;;;;;;12.43;80.38;100976.44;4996214;28;20057;-67
2023/12/28 00:20:31;;;;;;;8.93;4.18;;;;;;;12.38;80.52;100982.09;5010697;28;20065;-67
2023/12/28 00:22:59;;;;;;;10.15;5.35;;;;;;;12.35;80.74;100991.84;5032326;28;20045;-67
2023/12/28 00:25:26;;;;;;;8.85;3.13;;;;;;;12.37;80.28;100986.00;5030168;28;20057;-67
2023/12/28 00:27:53;;;;;;;7.18;2.90;;;;;;;12.40;80.47;100988.94;5032477;28;20054;-67
2023/12/28 00:30:21;;;;;;;8.45;3.20;;;;;;;12.29;81.15;100992.31;5013739;28;20056;-68
2023/12/28 00:32:48;;;;;;;9.27;3.65;;;;;;;12.11;81.97;100991.41;5031251;28;20419;-67
2023/12/28 00:35:16;;;;;;;7.78;2.83;;;;;;;12.06;82.31;100990.72;5027563;28;20056;-67
2023/12/28 00:37:43;;;;;;;9.93;3.75;;;;;;;12.17;82.53;100992.91;5014778;28;20517;-67
2023/12/28 00:40:11;;;;;;;7.75;2.80;;;;;;;12.19;82.08;100998.09;5031764;28;20515;-67
2023/12/28 00:42:40;;;;;;;11.18;4.00;;;;;;;12.07;82.50;100987.66;5000336;28;20440;-67
2023/12/28 00:45:09;;;;;;;9.43;3.53;;;;;;;11.96;83.47;100993.78;5014537;28;20052;-69
2023/12/28 00:47:37;;;;;;;16.00;3.38;;;;;;;11.78;84.71;100997.53;5015363;28;20057;-61
2023/12/28 00:50:05;;;;;;;9.75;2.83;;;;;;;11.98;84.34;100999.75;4980791;28;20050;-61
2023/12/28 00:52:40;;;;;;;8.55;3.22;;;;;;;12.31;83.10;100992.78;5024341;28;20052;-62
2023/12/28 00:55:24;;;;;;;9.05;3.30;;;;;;;12.12;82.89;100986.69;5029412;28;20579;-61
2023/12/28 00:57:51;;;;;;;7.30;2.83;;;;;;;12.36;82.04;100992.69;5015761;28;20531;-60
2023/12/28 01:00:18;;;;;;;11.70;3.17;;;;;;;12.20;82.53;100986.72;5050185;28;20773;-61
2023/12/28 01:02:49;;;;;;;9.13;3.45;;;;;;;12.17;82.63;100983.78;5049713;28;20052;-61
2023/12/28 01:05:17;;;;;;;11.63;3.22;;;;;;;12.00;84.17;100989.22;5033120;28;20076;-62
2023/12/28 01:07:44;;;;;;;9.00;3.40;;;;;;;11.93;84.41;100986.09;5055289;28;20041;-60
2023/12/28 01:10:11;;;;;;;8.55;3.22;;;;;;;11.87;84.70;100976.34;5071952;28;20063;-65
2023/12/28 01:12:39;;;;;;;12.30;3.05;;;;;;;12.05;84.47;100973.34;5045482;28;20049;-61
2023/12/28 01:15:07;;;;;;;9.23;3.10;;;;;;;12.08;84.19;100980.19;5049616;28;20644;-60
2023/12/28 01:17:35;;;;;;;10.05;3.08;;;;;;;12.14;84.09;100978.91;5051485;28;20045;-60
2023/12/28 01:20:08;;;;;;;8.32;3.47;;;;;;;12.15;83.98;100984.09;5033578;28;20056;-62
2023/12/28 01:22:35;;;;;;;11.30;3.20;;;;;;;12.11;83.91;100996.94;5034139;28;20045;-62
2023/12/28 01:25:02;;;;;;;9.90;3.45;;;;;;;11.99;84.74;100995.88;5033467;28;20053;-60
2023/12/28 01:27:30;;;;;;;9.82;3.17;;;;;;;11.89;85.27;100991.44;5051819;28;20167;-60
2023/12/28 01:29:57;;;;;;;11.18;3.42;;;;;;;12.12;85.40;101000.50;5033902;28;20052;-61
2023/12/28 01:32:24;;;;;;;7.63;3.53;;;;;;;11.98;85.12;101002.53;5037220;28;20041;-61
2023/12/28 01:34:52;;;;;;;12.07;3.95;;;;;;;12.10;85.03;100995.28;5020391;28;20045;-62
2023/12/28 01:37:24;;;;;;;9.27;3.35;;;;;;;11.96;85.45;100991.81;5054682;28;20048;-63
2023/12/28 01:40:03;;;;;;;11.40;3.08;;;;;;;12.04;85.39;100985.53;5020268;28;20052;-61
2023/12/28 01:42:31;;;;;;;7.85;3.05;;;;;;;12.10;85.47;100998.06;5036773;28;20045;-60
2023/12/28 01:44:58;;;;;;;12.35;3.65;;;;;;;11.99;85.76;100995.88;5035351;28;20053;-61
2023/12/28 01:47:26;;;;;;;11.05;3.03;;;;;;;12.07;85.87;101001.47;5054980;28;20455;-60
2023/12/28 01:49:54;;;;;;;9.88;2.92;;;;;;;11.85;86.76;101007.00;5053672;28;20056;-61
2023/12/28 01:52:21;;;;;;;12.65;3.38;;;;;;;12.09;86.22;100995.63;5032262;28;20060;-61
2023/12/28 01:54:49;;;;;;;13.75;3.60;;;;;;;12.06;87.23;101012.81;5055043;28;20052;-61
2023/12/28 01:57:16;;;;;;;6.00;2.80;;;;;;;12.23;86.16;101010.16;5053687;28;20049;-60
2023/12/28 01:59:44;;;;;;;10.23;3.45;;;;;;;12.26;85.60;101006.75;5015158;28;20060;-61
2023/12/28 02:02:11;;;;;;;11.68;3.67;;;;;;;12.02;86.28;101023.69;5020529;28;20052;-61
2023/12/28 02:04:39;;;;;;;10.18;3.40;;;;;;;12.15;87.08;101017.25;5053720;28;20052;-60
2023/12/28 02:07:07;;;;;;;10.05;3.38;;;;;;;12.20;86.41;101019.06;5053912;28;20059;-61
2023/12/28 02:09:34;;;;;;;9.43;3.40;;;;;;;12.20;86.88;101030.91;5054531;28;20053;-60
2023/12/28 02:12:02;;;;;;;8.55;3.00;;;;;;;12.04;87.89;101023.38;5054874;28;20053;-62
2023/12/28 02:14:31;;;;;;;9.38;3.75;;;;;;;12.06;88.23;101021.94;5053663;28;20045;-61
2023/12/28 02:17:04;;;;;;;15.02;3.38;;;;;;;12.03;88.27;101025.31;5004208;28;20052;-62
2023/12/28 02:19:36;;;;;;;8.77;3.03;;;;;;;11.99;89.27;101035.38;5036744;28;20126;-61
2023/12/28 02:22:04;;;;;;;9.93;3.53;;;;;;;11.96;89.73;101040.69;5037134;28;20056;-61
2023/12/28 02:24:31;;;;;;;13.45;3.30;;;;;;;11.96;90.13;101032.41;5037071;28;20053;-61
2023/12/28 02:26:58;;;;;;;8.75;3.08;;;;;;;12.08;89.48;101029.91;5054371;28;20539;-60
2023/12/28 02:29:27;;;;;;;9.45;3.38;;;;;;;12.03;89.57;101030.81;5054333;28;20044;-60
2023/12/28 02:32:01;;;;;;;12.20;3.38;;;;;;;12.00;90.50;101042.50;5033063;28;20049;-62
2023/12/28 02:34:34;;;;;;;11.32;3.58;;;;;;;11.83;91.40;101045.16;5012029;28;20052;-61
2023/12/28 02:37:02;;;;;;;11.48;3.33;;;;;;;11.81;92.23;101041.88;5054619;28;20052;-60
2023/12/28 02:39:30;;;;;;;8.55;3.15;;;;;;;11.94;91.72;101037.44;5036641;28;20059;-61
2023/12/28 02:41:58;;;;;;;9.30;3.30;;;;;;;11.91;91.61;101043.56;5041563;28;20049;-61
2023/12/28 02:44:25;;;;;;;10.00;3.40;;;;;;;12.08;91.12;101035.41;5069353;28;20064;-61
2023/12/28 02:46:52;;;;;;;12.02;3.03;;;;;;;12.20;90.03;101041.97;5034654;28;20060;-61
2023/12/28 02:49:25;;;;;;;8.65;2.70;;;;;;;12.03;90.46;101035.56;5052898;28;20045;-62
2023/12/28 02:52:06;;;;;;;8.63;3.30;;;;;;;11.79;92.18;101033.09;5049914;28;20045;-61
2023/12/28 02:54:34;;;;;;;8.60;2.70;;;;;;;11.95;92.14;101034.34;5019898;28;20148;-61
2023/12/28 02:57:01;;;;;;;11.07;3.20;;;;;;;12.01;92.13;101035.84;5050214;28;20057;-61
2023/12/28 02:59:28;;;;;;;8.90;3.05;;;;;;;12.06;91.94;101032.16;5054147;28;20511;-60
2023/12/28 03:01:56;;;;;;;9.65;2.97;;;;;;;11.92;92.21;101042.44;5019338;28;20048;-61
2023/12/28 03:04:23;;;;;;;10.57;3.67;;;;;;;12.05;91.05;101039.59;5047838;28;20415;-59
2023/12/28 03:06:51;;;;;;;11.45;3.40;;;;;;;11.95;91.67;101044.56;5052352;28;20057;-60
2023/12/28 03:09:19;;;;;;;9.82;2.88;;;;;;;11.71;93.33;101046.84;5015633;28;20088;-59
2023/12/28 03:11:46;;;;;;;10.38;3.67;;;;;;;11.81;92.52;101041.06;5034007;28;20056;-61
2023/12/28 03:14:14;;;;;;;11.77;3.20;;;;;;;11.99;91.58;101043.66;5047866;28;20088;-61
2023/12/28 03:16:41;;;;;;;11.85;2.95;;;;;;;12.08;90.86;101041.72;5053541;28;20045;-61
2023/12/28 03:19:08;;;;;;;10.25;2.95;;;;;;;12.01;90.80;101030.31;5041704;28;20061;-60
2023/12/28 03:21:40;;;;;;;13.57;3.08;;;;;;;11.99;91.24;101038.13;5015903;28;20041;-61
2023/12/28 03:24:08;;;;;;;9.85;3.03;;;;;;;12.08;90.75;101040.94;5016584;28;20052;-62
2023/12/28 03:26:38;;;;;;;13.30;3.30;;;;;;;12.08;90.14;101036.22;5032069;28;20057;-60
2023/12/28 03:29:07;;;;;;;10.88;3.13;;;;;;;12.09;90.23;101035.09;5034295;28;20053;-60
2023/12/28 03:31:39;;;;;;;8.95;3.45;;;;;;;11.91;90.95;101044.38;5021452;28;20052;-60
2023/12/28 03:34:07;;;;;;;15.32;3.97;;;;;;;11.99;91.40;101051.09;5053084;28;20049;-59
2023/12/28 03:36:35;;;;;;;11.45;3.67;;;;;;;11.96;90.71;101057.25;5034500;28;20060;-60
2023/12/28 03:39:06;;;;;;;8.25;3.15;;;;;;;11.82;91.09;101059.28;5040940;28;20072;-61
2023/12/28 03:41:33;;;;;;;10.77;3.13;;;;;;;11.85;92.11;101053.13;5052327;28;20049;-60
2023/12/28 03:44:00;;;;;;;10.45;3.65;;;;;;;11.76;92.59;101055.00;5035469;28;20049;-60
2023/12/28 03:46:28;;;;;;;14.35;3.42;;;;;;;12.07;92.03;101053.09;5052016;28;20179;-62
2023/12/28 03:48:55;;;;;;;11.80;3.58;;;;;;;12.11;90.59;101048.59;5050761;28;20049;-60
2023/12/28 03:51:25;;;;;;;;;;;;;;;11.94;90.82;101054.00;5018738;28;20105;-61
2023/12/28 03:53:52;;;;;;;11.90;3.65;;;;;;;11.91;91.10;101060.94;5034721;28;19921;-60
2023/12/28 03:56:23;;;;;;;9.35;2.83;;;;;;;11.81;92.12;101052.09;5052773;28;20057;-61
2023/12/28 03:58:54;;;;;;;9.63;3.05;;;;;;;11.72;91.86;101041.00;5034513;28;20049;-60
2023/12/28 04:01:24;;;;;;;9.02;3.45;;;;;;;11.62;92.33;101051.44;5053093;28;20059;-61
2023/12/28 04:03:52;;;;;;;13.32;3.53;;;;;;;11.80;92.30;101056.00;5052116;28;20154;-61
2023/12/28 04:06:19;;;;;;;10.48;3.78;;;;;;;11.89;91.59;101045.84;5017388;28;20052;-61
2023/12/28 04:08:46;;;;;;;15.40;3.55;;;;;;;11.83;91.38;101055.38;5050918;28;20479;-62
2023/12/28 04:11:14;;;;;;;12.60;3.20;;;;;;;11.84;91.20;101049.53;5050906;28;20056;-61
2023/12/28 04:13:41;;;;;;;12.52;3.60;;;;;;;11.77;90.93;101056.63;5051637;28;20535;-61
2023/12/28 04:16:12;;;;;;;10.15;3.58;;;;;;;11.65;92.06;101048.91;5050224;28;20053;-61
2023/12/28 04:18:43;;;;;;;9.00;3.17;;;;;;;11.59;92.69;101047.38;5050672;28;20083;-62
2023/12/28 04:21:12;;;;;;;15.43;3.55;;;;;;;11.70;92.37;101051.53;5051206;28;20064;-60
2023/12/28 04:23:41;;;;;;;12.07;3.60;;;;;;;11.57;92.44;101035.81;5052365;28;20048;-61
2023/12/28 04:26:08;;;;;;;12.32;3.45;;;;;;;11.65;92.90;101045.31;5033809;28;20053;-60
2023/12/28 04:28:36;;;;;;;10.57;3.22;;;;;;;11.69;92.58;101043.56;5050852;28;20056;-61
2023/12/28 04:31:04;;;;;;;11.95;3.08;;;;;;;11.68;92.11;101039.97;5050708;28;20049;-61
2023/12/28 04:33:32;;;;;;;13.40;3.92;;;;;;;11.76;91.88;101041.19;5032675;28;20409;-61
2023/12/28 04:36:04;;;;;;;10.18;3.10;;;;;;;11.62;92.09;101032.94;5050153;28;20053;-60
2023/12/28 04:38:32;;;;;;;9.68;3.10;;;;;;;11.67;92.10;101032.03;5066013;28;20052;-60
2023/12/28 04:41:00;;;;;;;12.32;3.55;;;;;;;11.60;92.72;101035.19;5015363;28;20053;-61
2023/12/28 04:43:28;;;;;;;8.07;3.35;;;;;;;11.57;93.31;101035.00;5033583;28;20488;-61
2023/12/28 04:45:55;;;;;;;12.32;3.10;;;;;;;11.55;92.85;101037.25;5015479;28;20060;-60
2023/12/28 04:48:25;;;;;;;12.55;3.17;;;;;;;11.51;93.37;101042.56;5050598;28;20053;-59
2023/12/28 04:50:52;;;;;;;;;;;;;;;11.58;92.89;101040.19;5034907;28;20044;-60
2023/12/28 04:53:20;;;;;;;14.15;3.38;;;;;;;11.56;92.70;101038.91;5047014;28;19925;-61
2023/12/28 04:55:47;;;;;;;12.55;3.92;;;;;;;11.56;92.91;101030.63;5021080;28;20796;-60
2023/12/28 04:58:15;;;;;;;11.40;3.10;;;;;;;11.49;92.26;101025.53;5050939;28;20060;-61
2023/12/28 05:00:42;;;;;;;12.07;3.25;;;;;;;11.64;92.30;101025.19;5033882;28;20045;-60
2023/12/28 05:03:09;;;;;;;10.25;3.35;;;;;;;11.61;92.77;101036.03;5033927;28;20558;-61
2023/12/28 05:05:37;;;;;;;10.95;3.15;;;;;;;11.53;92.56;101037.56;5051171;28;20057;-61
2023/12/28 05:08:04;;;;;;;16.10;3.10;;;;;;;11.41;93.44;101042.00;5056231;28;20037;-61
2023/12/28 05:10:32;;;;;;;11.88;3.33;;;;;;;11.39;93.36;101034.03;5038254;28;20048;-62
2023/12/28 05:12:59;;;;;;;9.35;3.10;;;;;;;11.64;92.59;101038.16;5037369;28;20550;-61
2023/12/28 05:15:29;;;;;;;14.70;3.53;;;;;;;11.43;92.87;101037.00;5056170;28;20053;-63
2023/12/28 05:17:56;;;;;;;11.18;2.95;;;;;;;11.59;92.46;101052.88;5037815;28;20052;-59
2023/12/28 05:20:25;;;;;;;8.98;3.00;;;;;;;11.61;92.78;101052.56;5055874;28;20519;-61
2023/12/28 05:22:52;;;;;;;16.33;4.00;;;;;;;11.38;94.06;101060.00;5055940;28;20049;-61
2023/12/28 05:25:19;;;;;;;16.00;3.92;;;;;;;11.31;94.72;101059.59;5055675;28;20053;-62
2023/12/28 05:27:47;;;;;;;12.30;3.25;;;;;;;11.25;95.33;101055.31;5055585;28;20048;-60
2023/12/28 05:30:14;;;;;;;14.88;3.58;;;;;;;11.43;94.49;101057.13;5036579;28;20156;-60
2023/12/28 05:32:42;;;;;;;12.27;3.47;;;;;;;11.33;94.57;101062.88;5055685;28;20047;-61
2023/12/28 05:35:09;;;;;;;15.52;3.72;;;;;;;11.34;94.81;101057.03;5037719;28;20052;-61
2023/12/28 05:37:36;;;;;;;10.40;3.25;;;;;;;11.34;94.95;101051.53;5021032;28;20053;-60
2023/12/28 05:40:04;;;;;;;14.32;3.08;;;;;;;11.23;96.08;101054.81;5021100;28;20063;-61
2023/12/28 05:42:31;;;;;;;13.63;3.90;;;;;;;11.34;95.44;101057.03;5055894;28;20183;-60
2023/12/28 05:44:59;;;;;;;12.27;3.35;;;;;;;11.28;95.75;101058.28;5055300;28;20051;-61
2023/12/28 05:47:26;;;;;;;13.07;3.50;;;;;;;11.33;95.52;101066.44;5064323;28;20048;-61
2023/12/28 05:49:53;;;;;;;15.15;3.33;;;;;;;11.44;94.79;101060.69;5040472;28;20061;-61
2023/12/28 05:52:21;;;;;;;10.30;3.33;;;;;;;11.43;94.60;101067.31;5056135;28;20453;-61
2023/12/28 05:54:48;;;;;;;15.40;3.35;;;;;;;11.17;95.59;101067.09;5055184;28;20198;-60
2023/12/28 05:57:16;;;;;;;13.18;3.13;;;;;;;11.29;95.51;101070.13;5021060;28;20049;-60
2023/12/28 05:59:43;;;;;;;13.55;3.17;;;;;;;11.27;95.63;101075.97;5055322;28;20053;-62
2023/12/28 06:02:10;;;;;;;13.45;3.85;;;;;;;11.26;96.11;101079.03;5053543;28;20509;-60
2023/12/28 06:04:38;;;;;;;12.65;3.25;;;;;;;11.21;95.71;101079.94;5036401;28;20052;-62
2023/12/28 06:07:05;;;;;;;13.38;3.63;;;;;;;11.45;94.74;101084.38;5017311;28;20080;-59
2023/12/28 06:09:33;;;;;;;17.58;3.78;;;;;;;11.35;94.81;101082.66;5034382;28;20055;-61
2023/12/28 06:12:00;;;;;;;15.02;3.97;;;;;;;11.50;93.96;101084.28;5041201;28;20048;-59
2023/12/28 06:14:27;;;;;;;16.75;3.70;;;;;;;11.42;93.90;101094.09;5054826;28;20055;-61
2023/12/28 06:16:55;;;;;;;13.70;3.55;;;;;;;11.41;94.45;101088.88;5064392;28;20049;-61
2023/12/28 06:19:22;;;;;;;14.18;3.50;;;;;;;11.38;94.10;101091.13;5049853;28;20055;-59
2023/12/28 06:21:50;;;;;;;14.45;3.60;;;;;;;11.44;93.93;101088.28;5036134;28;20727;-61
2023/12/28 06:24:17;;;;;;;15.73;3.47;;;;;;;11.15;95.01;101086.69;5035528;28;20048;-61
2023/12/28 06:26:45;;;;;;;15.07;3.25;;;;;;;11.67;93.15;101084.44;5035841;28;20531;-61
2023/12/28 06:29:12;;;;;;;15.63;3.75;;;;;;;11.56;92.51;101088.56;5054566;28;20045;-61
2023/12/28 06:31:40;;;;;;;14.77;3.33;;;;;;;11.45;92.66;101090.72;5035390;28;20543;-61
2023/12/28 06:34:08;;;;;;;18.98;4.20;;;;;;;11.33;93.82;101088.50;5052432;28;20396;-61
2023/12/28 06:36:35;;;;;;;15.38;3.47;;;;;;;11.32;94.34;101097.06;5054001;28;20052;-61
2023/12/28 06:39:03;;;;;;;16.95;3.28;;;;;;;11.40;94.66;101098.28;5054139;28;20060;-60
2023/12/28 06:41:30;;;;;;;16.92;3.60;;;;;;;11.28;94.54;101098.81;5041560;28;20056;-61
2023/12/28 06:43:58;;;;;;;17.38;3.97;;;;;;;11.28;94.37;101094.13;5036169;28;20056;-60
2023/12/28 06:46:25;;;;;;;16.70;3.47;;;;;;;11.26;94.22;101104.63;5033755;28;20447;-62
2023/12/28 06:48:52;;;;;;;16.13;4.20;;;;;;;11.00;96.01;101099.97;5035916;28;20146;-60
2023/12/28 06:51:21;;;;;;;15.93;4.07;;;;;;;11.08;97.13;101093.75;5051466;28;20068;-61
2023/12/28 06:53:49;;;;;;;13.33;3.53;;;;;;;11.05;96.38;101105.38;5052772;28;20049;-61
2023/12/28 06:56:17;;;;;;;14.88;4.03;;;;;;;11.11;97.07;101091.19;5048268;28;20066;-61
2023/12/28 06:58:45;;;;;;;15.80;4.30;;;;;;;11.19;96.48;101098.72;5032667;28;20140;-61
2023/12/28 07:01:12;;;;;;;17.33;3.50;;;;;;;11.10;96.91;101099.78;5023077;28;20053;-62
2023/12/28 07:03:40;;;;;;;16.00;3.92;;;;;;;11.13;96.95;101099.16;5053114;28;20049;-60
2023/12/28 07:06:08;;;;;;;14.73;3.75;;;;;;;11.05;97.22;101095.16;5035546;28;20057;-61
2023/12/28 07:08:36;;;;;;;12.88;3.65;;;;;;;11.14;97.75;101103.56;5053713;28;20053;-61
2023/12/28 07:11:04;;;;;;;21.52;3.88;;;;;;;11.44;96.05;101105.63;5036287;28;20052;-60
2023/12/28 07:13:32;;;;;;;16.38;4.28;;;;;;;11.36;96.19;101106.38;5053562;28;20049;-62
2023/12/28 07:15:59;;;;;;;11.77;3.85;;;;;;;11.25;95.75;101108.53;5053761;28;20056;-62
2023/12/28 07:18:28;;;;;;;13.05;3.50;;;;;;;11.33;96.55;101107.00;5035285;28;20053;-61
2023/12/28 07:20:56;;;;;;;16.77;4.32;;;;;;;11.38;96.75;101100.53;5036036;28;20052;-62
2023/12/28 07:23:24;;;;;;;20.35;3.88;;;;;;;11.40;95.56;101112.91;5035944;28;20665;-61
2023/12/28 07:25:51;;;;;;;22.55;3.85;;;;;;;11.31;96.04;101112.00;5053247;28;20057;-61
2023/12/28 07:28:19;;;;;;;18.58;4.20;;;;;;;11.43;95.97;101112.28;5052113;28;20051;-61
2023/12/28 07:30:46;;;;;;;15.93;4.00;;;;;;;11.48;95.14;101114.94;5035146;28;20072;-60
2023/12/28 07:33:14;;;;;;;18.00;4.82;;;;;;;11.46;94.89;101111.66;5053026;28;20052;-61
2023/12/28 07:35:41;;;;;;;17.23;3.88;;;;;;;11.52;94.61;101115.13;5051417;28;20052;-60
2023/12/28 07:38:08;;;;;;;14.95;3.72;;;;;;;11.43;95.50;101117.81;5018712;28;20044;-61
2023/12/28 07:40:36;;;;;;;14.65;4.45;;;;;;;11.62;94.99;101115.72;5051111;28;20049;-60
2023/12/28 07:43:03;;;;;;;20.58;4.30;;;;;;;11.65;94.86;101117.06;5051673;28;20049;-61
2023/12/28 07:45:31;;;;;;;13.05;3.83;;;;;;;11.70;94.56;101119.72;5052951;28;20053;-60
2023/12/28 07:47:59;;;;;;;13.98;5.13;;;;;;;11.54;94.86;101127.47;5053037;28;20075;-61
2023/12/28 07:50:27;;;;;;;15.75;4.32;;;;;;;11.43;95.19;101126.06;5048788;28;20520;-61
2023/12/28 07:52:54;;;;;;;15.95;3.92;;;;;;;11.42;95.50;101127.19;5011651;28;20057;-60
2023/12/28 07:55:22;;;;;;;13.45;4.65;;;;;;;11.53;95.75;101125.84;4998585;28;20037;-61
2023/12/28 07:57:49;;;;;;;17.50;4.20;;;;;;;11.47;95.30;101129.03;5015014;28;20045;-62
2023/12/28 08:00:17;;;;;;;18.55;4.75;;;;;;;11.43;95.93;101128.84;5015659;28;20524;-61
2023/12/28 08:02:44;;;;;;;16.13;4.30;;;;;;;11.29;96.62;101123.34;5044686;28;20520;-61
2023/12/28 08:05:12;;;;;;;23.73;10.57;;;;;;;11.39;96.17;101122.28;5032414;28;20056;-60
2023/12/28 08:07:39;;;;;;;18.23;5.88;;;;;;;11.30;96.63;101122.22;5031540;28;20066;-60
2023/12/28 08:10:07;;;;;;;17.27;4.00;;;;;;;11.34;97.13;101130.69;5034186;28;20051;-62
2023/12/28 08:12:34;;;;;;;27.30;4.40;;;;;;;11.29;96.73;101126.09;5034814;28;20056;-61
2023/12/28 08:15:01;;;;;;;18.42;4.47;;;;;;;11.30;96.98;101136.00;5046973;28;20042;-62
2023/12/28 08:17:29;;;;;;;14.93;4.53;;;;;;;11.36;96.97;101133.94;5031350;28;20378;-61
2023/12/28 08:19:56;;;;;;;14.88;3.85;;;;;;;11.30;97.03;101140.69;5041443;28;20053;-62
2023/12/28 08:22:24;;;;;;;17.63;4.40;;;;;;;11.37;97.13;101129.25;5051942;28;20064;-62
2023/12/28 08:24:51;;;;;;;21.85;3.97;;;;;;;11.43;96.97;101139.88;5052609;28;20053;-61
2023/12/28 08:27:18;;;;;;;18.85;4.43;;;;;;;11.45;96.49;101142.31;5021310;28;20053;-61
2023/12/28 08:29:46;;;;;;;20.23;4.93;;;;;;;11.57;95.93;101140.66;5031826;28;20068;-61
2023/12/28 08:32:13;;;;;;;13.68;3.55;;;;;;;11.60;95.57;101144.72;5031877;28;20559;-62
2023/12/28 08:34:40;;;;;;;17.17;3.70;;;;;;;11.75;95.03;101136.16;5031643;28;20072;-61
2023/12/28 08:37:08;;;;;;;20.52;4.68;;;;;;;11.79;94.39;101140.72;5030963;28;20049;-61
2023/12/28 08:39:35;;;;;;;19.33;3.78;;;;;;;11.73;93.76;101142.00;5030256;28;20060;-61
2023/12/28 08:42:03;;;;;;;17.52;4.70;;;;;;;11.73;94.37;101141.16;5030570;28;20053;-60
2023/12/28 08:44:30;;;;;;;18.15;3.60;;;;;;;11.69;93.91;101137.38;5031738;28;20053;-61
2023/12/28 08:46:57;;;;;;;17.27;3.30;;;;;;;11.62;94.51;101136.97;4995913;28;20064;-62
2023/12/28 08:49:25;;;;;;;18.63;4.68;;;;;;;11.72;94.44;101137.59;5017390;28;20062;-61
2023/12/28 08:51:52;;;;;;;20.48;3.67;;;;;;;11.67;94.64;101145.16;5033598;28;20202;-62
2023/12/28 08:54:20;;;;;;;13.55;3.58;;;;;;;11.55;94.98;101153.94;5049627;28;20054;-66
2023/12/28 08:56:48;;;;;;;12.73;2.95;;;;;;;11.75;94.86;101148.00;5030024;28;20045;-62
2023/12/28 08:59:19;;;;;;;20.75;3.97;;;;;;;11.75;94.51;101152.72;5030772;28;20057;-62
2023/12/28 09:01:47;;;;;;;16.60;3.35;;;;;;;11.84;94.18;101156.34;5047661;28;20060;-63
2023/12/28 09:04:14;;;;;;;13.38;3.25;;;;;;;11.82;94.06;101151.16;5031276;28;20053;-62
2023/12/28 09:06:44;;;;;;;13.80;2.65;;;;;;;11.78;94.14;101161.19;5051504;28;20068;-62
2023/12/28 09:09:12;;;;;;;13.65;3.00;;;;;;;11.76;94.49;101159.84;5051369;28;20048;-60
2023/12/28 09:11:39;;;;;;;16.30;3.35;;;;;;;11.75;94.21;101159.03;5051354;28;20377;-61
2023/12/28 09:14:06;;;;;;;17.80;2.67;;;;;;;11.97;93.07;101172.91;5050967;28;20049;-61
2023/12/28 09:16:35;;;;;;;16.60;4.30;;;;;;;11.95;92.77;101166.88;5050930;28;20052;-60
2023/12/28 09:19:02;;;;;;;10.48;3.05;;;;;;;12.31;91.78;101164.88;5048391;28;20076;-62
2023/12/28 09:21:30;;;;;;;14.20;2.92;;;;;;;12.51;89.52;101162.72;5046035;28;20056;-61
2023/12/28 09:23:57;;;;;;;10.55;2.28;;;;;;;12.77;87.85;101159.00;5050733;28;20550;-61
2023/12/28 09:26:25;;;;;;;11.10;2.45;;;;;;;12.89;86.82;101161.16;5031868;28;20045;-60
2023/12/28 09:28:52;;;;;;;11.77;2.70;;;;;;;12.85;86.57;101157.41;5050362;28;20049;-62
2023/12/28 09:31:19;;;;;;;11.80;2.50;;;;;;;12.85;86.56;101158.22;5024097;28;20052;-61
2023/12/28 09:33:47;;;;;;;10.45;2.80;;;;;;;12.87;86.92;101166.19;5039068;28;20049;-62
2023/12/28 09:36:15;;;;;;;13.73;3.20;;;;;;;13.30;84.63;101156.16;5036517;28;20068;-59
2023/12/28 09:38:42;;;;;;;9.95;2.83;;;;;;;13.46;83.95;101163.69;5031016;28;20076;-56
2023/12/28 09:41:14;;;;;;;13.75;2.65;;;;;;;13.69;81.68;101181.00;5049936;28;20053;-59
2023/12/28 09:44:05;;;;;;;13.75;3.45;;;;;;;13.38;81.75;101171.97;5033220;28;20400;-58
2023/12/28 09:46:35;;;;;;;14.88;3.17;;;;;;;13.12;83.28;101160.81;5043941;28;20041;-60
2023/12/28 09:49:05;;;;;;;12.13;3.42;;;;;;;13.34;83.32;101177.31;5045523;28;20044;-61
2023/12/28 09:51:32;;;;;;;17.10;4.18;;;;;;;13.30;83.01;101173.56;5027507;28;20401;-62
2023/12/28 09:54:00;;;;;;;11.60;3.10;;;;;;;13.54;82.45;101175.91;5037206;28;20064;-56
2023/12/28 09:56:27;;;;;;;18.55;8.32;;;;;;;13.72;82.47;101182.31;5032329;28;20116;-56
2023/12/28 09:59:03;;;;;;;14.82;4.18;;;;;;;13.52;81.80;101179.03;5028820;28;20072;-56
2023/12/28 10:01:31;;;;;;;13.82;3.30;;;;;;;13.42;82.34;101172.97;5034475;28;20049;-61
2023/12/28 10:03:59;;;;;;;10.57;5.15;;;;;;;13.30;82.21;101173.56;5042428;28;20049;-57
2023/12/28 10:06:26;;;;;;;12.13;5.43;;;;;;;13.25;82.37;101178.44;5041842;28;20223;-63
2023/12/28 10:08:55;;;;;;;20.83;7.97;;;;;;;13.26;82.47;101167.06;5031060;28;20043;-62
2023/12/28 10:11:23;;;;;;;15.02;4.00;;;;;;;13.12;82.58;101171.88;5050220;28;22360;-62
2023/12/28 10:13:51;;;;;;;16.42;3.28;;;;;;;13.33;82.85;101167.41;5046616;28;20174;-62
2023/12/28 10:16:18;;;;;;;18.65;4.05;;;;;;;13.37;81.64;101167.59;5029588;28;20129;-61
2023/12/28 10:18:46;;;;;;;11.60;2.90;;;;;;;13.28;82.14;101164.78;5050372;28;20694;-61
2023/12/28 10:21:13;;;;;;;13.95;3.50;;;;;;;13.68;80.64;101164.72;5041074;28;20053;-62
2023/12/28 10:23:41;;;;;;;10.00;3.10;;;;;;;13.55;80.01;101156.22;5057613;28;20052;-62
2023/12/28 10:26:08;;;;;;;14.30;3.38;;;;;;;13.54;79.26;101164.84;5036018;28;20044;-62
2023/12/28 10:28:39;;;;;;;14.07;3.65;;;;;;;13.45;79.68;101148.22;5038452;28;20052;-64
2023/12/28 10:31:10;;;;;;;12.13;3.95;;;;;;;13.45;79.45;101153.75;5036347;28;20041;-62
2023/12/28 10:33:41;;;;;;;15.88;4.10;;;;;;;13.49;79.90;101146.44;5049487;28;20064;-65
2023/12/28 10:36:10;;;;;;;16.92;5.32;;;;;;;13.45;79.46;101144.63;5054237;28;20041;-62
2023/12/28 10:38:38;;;;;;;11.73;4.82;;;;;;;13.57;80.14;101144.81;5052539;28;20704;-63
2023/12/28 10:41:10;;;;;;;13.00;4.55;;;;;;;13.94;78.01;101138.69;5040401;28;20052;-59
2023/12/28 10:43:46;;;;;;;12.70;3.70;;;;;;;13.82;77.32;101146.81;5036311;28;20559;-62
2023/12/28 10:46:32;;;;;;;15.23;6.40;;;;;;;13.94;76.95;101144.22;5040774;28;20044;-59
2023/12/28 10:49:10;;;;;;;15.88;4.93;;;;;;;13.83;77.37;101142.09;5053848;28;20128;-61
2023/12/28 10:51:40;;;;;;;16.77;5.82;;;;;;;13.90;76.21;101143.22;5052998;28;20049;-62
2023/12/28 10:54:18;;;;;;;;;;;;;;;13.98;76.36;101141.63;4999727;28;20071;-59
2023/12/28 10:56:50;;;;;;;10.48;3.13;;;;;;;14.23;74.95;101133.28;5048172;28;19921;-58
2023/12/28 10:59:27;;;;;;;17.27;3.53;;;;;;;14.10;75.78;101136.22;5033470;28;20061;-59
2023/12/28 11:01:56;;;;;;;16.02;4.10;;;;;;;13.99;75.92;101118.31;5035545;28;20057;-57
2023/12/28 11:04:49;;;;;;;15.63;3.67;;;;;;;14.08;76.21;101119.13;5035210;28;20427;-58
2023/12/28 11:07:18;;;;;;;15.13;3.25;;;;;;;14.20;75.27;101116.50;5027871;28;20049;-59
2023/12/28 11:09:45;;;;;;;12.25;3.05;;;;;;;14.17;75.06;101106.09;5058978;28;20052;-60
2023/12/28 11:12:22;;;;;;;8.43;3.33;;;;;;;14.05;74.94;101098.41;5057855;28;20064;-58
2023/12/28 11:14:52;;;;;;;12.70;3.97;;;;;;;14.16;75.02;101102.50;5041389;28;20056;-61
2023/12/28 11:17:20;;;;;;;15.30;4.47;;;;;;;14.14;74.52;101101.22;5020307;28;20060;-57
2023/12/28 11:19:49;;;;;;;15.38;4.15;;;;;;;14.29;73.67;101103.50;5051520;28;20576;-60
2023/12/28 11:22:16;;;;;;;25.48;6.15;;;;;;;13.76;75.09;101105.75;5051941;28;20052;-60
2023/12/28 11:24:44;;;;;;;21.35;7.15;;;;;;;13.74;75.74;101113.59;5051433;28;20049;-58